Wadowice II — C6XW7 — position and weather

sailwx.info

Track history (hours):
 
Tides and Currents Weather Stations Pressure Air Temp Water Temp Dewpoint Dewpoint Depression Visibility Wind Speed Wind Dir Waves Ship Positions

Wadowice II

Last reported at 2017-Dec-11 15:11 UTC. Time now 2017-Dec-13 01:16 UTC.
Position N 55°21' E 011°02'.

Length 188 m; draft 9.2 m.

Type: Cargo ship. MMSI: 311024300.

Date/timePositionNaut miles runAvg speedWind from/ knotsBaromVisibWave heightAir tempDewpointWater temp
2017-Dec-11 15:11N 55°21' E 011°02'211.5
2017-Dec-11 15:01N 55°19' E 011°02'611.6
2017-Dec-11 14:30N 55°14' E 011°06'510.1
2017-Dec-11 14:01N 55°09' E 011°03'510.2
2017-Dec-11 13:31N 55°04' E 011°02'611.2
2017-Dec-11 13:00N 54°58' E 010°60'611.6
2017-Dec-11 12:30N 54°54' E 010°54'611.8
2017-Dec-11 12:00N 54°48' E 010°52'611.3
2017-Dec-11 11:30N 54°42' E 010°54'611.8
2017-Dec-11 11:00N 54°39' E 011°02'612.0
2017-Dec-11 10:30N 54°36' E 011°11'611.6
2017-Dec-11 10:00N 54°34' E 011°20'612.3
2017-Dec-11 09:30N 54°31' E 011°30'612.0
2017-Dec-11 09:00N 54°29' E 011°39'612.2
2017-Dec-11 08:30N 54°27' E 011°49'612.1
2017-Dec-11 07:59N 54°26' E 011°60'612.0
2017-Dec-11 07:30N 54°27' E 012°10'611.9
2017-Dec-11 07:00N 54°32' E 012°14'5511.3
2017-Dec-11 02:11N 54°58' E 013°37'912.2
2017-Dec-11 01:26N 55°01' E 013°52'512.0
2017-Dec-11 01:00N 55°03' E 014°01'611.4
2017-Dec-11 00:31N 55°07' E 014°07'611.7
2017-Dec-11 00:01N 55°11' E 014°14'611.6
2017-Dec-10 23:31N 55°16' E 014°20'611.8
2017-Dec-10 23:01N 55°21' E 014°26'611.9
2017-Dec-10 22:31N 55°25' E 014°33'611.7
2017-Dec-10 22:01N 55°29' E 014°42'611.8
2017-Dec-10 21:31N 55°31' E 014°51'711.9
2017-Dec-10 20:57N 55°35' E 015°01'511.8
2017-Dec-10 20:31N 55°37' E 015°09'611.6
2017-Dec-10 20:00N 55°40' E 015°18'611.3
2017-Dec-10 19:30N 55°43' E 015°26'611.2
2017-Dec-10 19:00N 55°46' E 015°35'611.2
2017-Dec-10 18:30N 55°49' E 015°43'611.2
2017-Dec-10 18:00N 55°52' E 015°52'611.1
2017-Dec-10 17:30N 55°54' E 016°01'611.1
2017-Dec-10 17:00N 55°57' E 016°10'510.8
2017-Dec-10 16:30N 55°60' E 016°18'510.9
2017-Dec-10 16:00N 56°03' E 016°26'510.9
2017-Dec-10 15:30N 56°05' E 016°34'510.6
2017-Dec-10 15:00N 56°08' E 016°42'  
2017-Dec-04 09:10N 53°47' E 014°23'210.6
2017-Dec-04 08:56N 53°45' E 014°25'4 8.4
2017-Dec-04 08:27N 53°42' E 014°29'4 9.4
2017-Dec-04 08:00N 53°38' E 014°34'4 8.7
2017-Dec-04 07:30N 53°34' E 014°36'0 0.0
2017-Dec-02 17:34N 53°34' E 014°35'0 0.0
2017-Dec-02 17:25N 53°34' E 014°35'0 0.0
2017-Dec-02 10:07N 53°34' E 014°35'0 0.0
2017-Dec-02 09:43N 53°34' E 014°35'0 0.0
2017-Dec-02 09:25N 53°34' E 014°35'0 0.0
2017-Dec-02 08:55N 53°34' E 014°35'0 0.0
2017-Dec-02 08:19N 53°34' E 014°35'0 0.0
2017-Dec-02 07:55N 53°34' E 014°35'0 0.0
2017-Dec-02 07:25N 53°34' E 014°35'0 0.0
2017-Dec-02 06:55N 53°34' E 014°35'0 0.0
2017-Dec-02 06:19N 53°34' E 014°35'0 0.0
2017-Dec-02 05:55N 53°34' E 014°35'0 0.0
2017-Dec-02 05:25N 53°34' E 014°35'0 0.0
2017-Dec-02 04:55N 53°34' E 014°35'0 0.0
2017-Dec-02 04:25N 53°34' E 014°35'0 0.0
2017-Dec-02 03:55N 53°34' E 014°35'0 0.0
2017-Dec-02 03:25N 53°34' E 014°35'0 0.0
2017-Dec-02 02:55N 53°34' E 014°35'0 0.0
2017-Dec-02 02:25N 53°34' E 014°35'0 0.0
2017-Dec-02 01:55N 53°34' E 014°35'0 0.0
2017-Dec-02 01:25N 53°34' E 014°35'0 0.0
2017-Dec-02 00:49N 53°34' E 014°35'0 0.0
2017-Dec-02 00:25N 53°34' E 014°35'0 0.0
2017-Dec-01 23:49N 53°34' E 014°35'0 0.0
2017-Dec-01 23:25N 53°34' E 014°35'0 0.0
2017-Dec-01 22:58N 53°34' E 014°35'0 0.0
2017-Dec-01 22:25N 53°34' E 014°35'  
Track history (hours):
 
Tides and Currents Weather Stations Pressure Air Temp Water Temp Dewpoint Dewpoint Depression Visibility Wind Speed Wind Dir Waves Ship Positions

Wadowice II

Last reported at 2017-Dec-11 15:11 UTC. Time now 2017-Dec-13 01:16 UTC.
Position N 55°21' E 011°02'.

Length 188 m; draft 9.2 m.

Type: Cargo ship. MMSI: 311024300.

Date/timePositionNaut miles runAvg speedWind from/ knotsBaromVisibWave heightAir tempDewpointWater temp
2017-Dec-11 15:11N 55°21' E 011°02'211.5
2017-Dec-11 15:01N 55°19' E 011°02'611.6
2017-Dec-11 14:30N 55°14' E 011°06'510.1
2017-Dec-11 14:01N 55°09' E 011°03'510.2
2017-Dec-11 13:31N 55°04' E 011°02'611.2
2017-Dec-11 13:00N 54°58' E 010°60'611.6
2017-Dec-11 12:30N 54°54' E 010°54'611.8
2017-Dec-11 12:00N 54°48' E 010°52'611.3
2017-Dec-11 11:30N 54°42' E 010°54'611.8
2017-Dec-11 11:00N 54°39' E 011°02'612.0
2017-Dec-11 10:30N 54°36' E 011°11'611.6
2017-Dec-11 10:00N 54°34' E 011°20'612.3
2017-Dec-11 09:30N 54°31' E 011°30'612.0
2017-Dec-11 09:00N 54°29' E 011°39'612.2
2017-Dec-11 08:30N 54°27' E 011°49'612.1
2017-Dec-11 07:59N 54°26' E 011°60'612.0
2017-Dec-11 07:30N 54°27' E 012°10'611.9
2017-Dec-11 07:00N 54°32' E 012°14'5511.3
2017-Dec-11 02:11N 54°58' E 013°37'912.2
2017-Dec-11 01:26N 55°01' E 013°52'512.0
2017-Dec-11 01:00N 55°03' E 014°01'611.4
2017-Dec-11 00:31N 55°07' E 014°07'611.7
2017-Dec-11 00:01N 55°11' E 014°14'611.6
2017-Dec-10 23:31N 55°16' E 014°20'611.8
2017-Dec-10 23:01N 55°21' E 014°26'611.9
2017-Dec-10 22:31N 55°25' E 014°33'611.7
2017-Dec-10 22:01N 55°29' E 014°42'611.8
2017-Dec-10 21:31N 55°31' E 014°51'711.9
2017-Dec-10 20:57N 55°35' E 015°01'511.8
2017-Dec-10 20:31N 55°37' E 015°09'611.6
2017-Dec-10 20:00N 55°40' E 015°18'611.3
2017-Dec-10 19:30N 55°43' E 015°26'611.2
2017-Dec-10 19:00N 55°46' E 015°35'611.2
2017-Dec-10 18:30N 55°49' E 015°43'611.2
2017-Dec-10 18:00N 55°52' E 015°52'611.1
2017-Dec-10 17:30N 55°54' E 016°01'611.1
2017-Dec-10 17:00N 55°57' E 016°10'510.8
2017-Dec-10 16:30N 55°60' E 016°18'510.9
2017-Dec-10 16:00N 56°03' E 016°26'510.9
2017-Dec-10 15:30N 56°05' E 016°34'510.6
2017-Dec-10 15:00N 56°08' E 016°42'  
2017-Dec-04 09:10N 53°47' E 014°23'210.6
2017-Dec-04 08:56N 53°45' E 014°25'4 8.4
2017-Dec-04 08:27N 53°42' E 014°29'4 9.4
2017-Dec-04 08:00N 53°38' E 014°34'4 8.7
2017-Dec-04 07:30N 53°34' E 014°36'0 0.0
2017-Dec-02 17:34N 53°34' E 014°35'0 0.0
2017-Dec-02 17:25N 53°34' E 014°35'0 0.0
2017-Dec-02 10:07N 53°34' E 014°35'0 0.0
2017-Dec-02 09:43N 53°34' E 014°35'0 0.0
2017-Dec-02 09:25N 53°34' E 014°35'0 0.0
2017-Dec-02 08:55N 53°34' E 014°35'0 0.0
2017-Dec-02 08:19N 53°34' E 014°35'0 0.0
2017-Dec-02 07:55N 53°34' E 014°35'0 0.0
2017-Dec-02 07:25N 53°34' E 014°35'0 0.0
2017-Dec-02 06:55N 53°34' E 014°35'0 0.0
2017-Dec-02 06:19N 53°34' E 014°35'0 0.0
2017-Dec-02 05:55N 53°34' E 014°35'0 0.0
2017-Dec-02 05:25N 53°34' E 014°35'0 0.0
2017-Dec-02 04:55N 53°34' E 014°35'0 0.0
2017-Dec-02 04:25N 53°34' E 014°35'0 0.0
2017-Dec-02 03:55N 53°34' E 014°35'0 0.0
2017-Dec-02 03:25N 53°34' E 014°35'0 0.0
2017-Dec-02 02:55N 53°34' E 014°35'0 0.0
2017-Dec-02 02:25N 53°34' E 014°35'0 0.0
2017-Dec-02 01:55N 53°34' E 014°35'0 0.0
2017-Dec-02 01:25N 53°34' E 014°35'0 0.0
2017-Dec-02 00:49N 53°34' E 014°35'0 0.0
2017-Dec-02 00:25N 53°34' E 014°35'0 0.0
2017-Dec-01 23:49N 53°34' E 014°35'0 0.0
2017-Dec-01 23:25N 53°34' E 014°35'0 0.0
2017-Dec-01 22:58N 53°34' E 014°35'0 0.0
2017-Dec-01 22:25N 53°34' E 014°35'  

Dump ship's entire track history